createdAt,value
2022-08-26T00:01:52.057Z,8.90
2022-08-26T00:04:19.517Z,8.97
2022-08-26T00:06:47.262Z,8.40
2022-08-26T00:09:16.221Z,9.60
2022-08-26T00:11:44.690Z,9.57
2022-08-26T00:14:14.183Z,9.30
2022-08-26T00:16:47.929Z,9.60
2022-08-26T00:19:18.413Z,10.93
2022-08-26T00:21:48.840Z,9.67
2022-08-26T00:24:18.148Z,9.57
2022-08-26T00:26:45.459Z,9.00
2022-08-26T00:29:13.122Z,8.47
2022-08-26T00:31:40.778Z,8.80
2022-08-26T00:34:09.407Z,8.73
2022-08-26T00:36:36.760Z,8.30
2022-08-26T00:39:04.778Z,8.80
2022-08-26T00:41:34.314Z,9.23
2022-08-26T00:44:01.251Z,9.27
2022-08-26T00:46:36.066Z,9.20
2022-08-26T00:49:22.179Z,9.23
2022-08-26T00:51:58.016Z,9.60
2022-08-26T00:54:32.740Z,9.80
2022-08-26T00:57:08.556Z,10.00
2022-08-26T00:59:48.262Z,9.87
2022-08-26T01:02:20.229Z,9.83
2022-08-26T01:04:54.410Z,8.40
2022-08-26T01:07:25.664Z,8.77
2022-08-26T01:09:52.656Z,9.13
2022-08-26T01:12:22.231Z,8.63
2022-08-26T01:14:49.841Z,9.90
2022-08-26T01:17:17.080Z,8.60
2022-08-26T01:19:52.252Z,9.73
2022-08-26T01:22:52.371Z,8.80
2022-08-26T01:25:21.340Z,8.87
2022-08-26T01:27:49.217Z,9.70
2022-08-26T01:30:17.897Z,9.83
2022-08-26T01:32:46.082Z,10.23
2022-08-26T01:35:13.005Z,9.37
2022-08-26T01:37:41.103Z,10.23
2022-08-26T01:40:14.038Z,9.20
2022-08-26T01:42:44.431Z,10.00
2022-08-26T01:45:18.545Z,9.33
2022-08-26T01:47:49.093Z,9.60
2022-08-26T01:50:27.681Z,9.50
2022-08-26T01:52:57.679Z,9.90
2022-08-26T01:55:32.191Z,9.00
2022-08-26T01:58:00.790Z,8.73
2022-08-26T02:00:28.378Z,9.90
2022-08-26T02:03:16.217Z,8.67
2022-08-26T02:05:48.835Z,9.40
2022-08-26T02:08:24.609Z,8.60
2022-08-26T02:10:55.052Z,8.97
2022-08-26T02:13:23.250Z,8.90
2022-08-26T02:15:52.449Z,8.47
2022-08-26T02:18:20.082Z,9.83
2022-08-26T02:20:47.056Z,8.53
2022-08-26T02:23:18.643Z,10.53
2022-08-26T02:25:55.865Z,9.60
2022-08-26T02:28:22.988Z,9.17
2022-08-26T02:30:55.700Z,9.90
2022-08-26T02:33:22.898Z,10.33
2022-08-26T02:35:49.824Z,10.17
2022-08-26T02:38:17.775Z,10.90
2022-08-26T02:40:44.919Z,10.20
2022-08-26T02:43:12.674Z,9.50
2022-08-26T02:45:40.344Z,9.17
2022-08-26T02:48:13.701Z,10.50
2022-08-26T02:50:41.134Z,10.63
2022-08-26T02:53:09.897Z,10.60
2022-08-26T02:55:37.237Z,11.13
2022-08-26T02:58:05.230Z,10.80
2022-08-26T03:00:32.717Z,10.57
2022-08-26T03:02:59.995Z,10.33
2022-08-26T03:05:27.018Z,10.10
2022-08-26T03:07:54.014Z,10.77
2022-08-26T03:10:21.499Z,11.87
2022-08-26T03:12:48.649Z,11.57
2022-08-26T03:15:17.846Z,10.30
2022-08-26T03:17:47.146Z,10.90
2022-08-26T03:20:15.458Z,11.50
2022-08-26T03:22:43.130Z,11.50
2022-08-26T03:25:12.904Z,12.03
2022-08-26T03:27:41.693Z,12.03
2022-08-26T03:30:30.091Z,11.23
2022-08-26T03:32:57.330Z,12.23
2022-08-26T03:35:25.599Z,12.20
2022-08-26T03:37:53.822Z,12.53
2022-08-26T03:40:22.371Z,10.87
2022-08-26T03:42:51.187Z,11.33
2022-08-26T03:45:19.326Z,11.00
2022-08-26T03:47:47.564Z,11.77
2022-08-26T03:50:17.676Z,12.20
2022-08-26T03:52:56.035Z,11.40
2022-08-26T03:55:28.778Z,11.87
2022-08-26T03:57:55.872Z,13.37
2022-08-26T04:00:22.861Z,12.77
2022-08-26T04:02:53.374Z,12.23
2022-08-26T04:05:21.776Z,11.80
2022-08-26T04:07:49.836Z,13.17
2022-08-26T04:10:19.454Z,13.00
2022-08-26T04:12:47.787Z,12.70
2022-08-26T04:15:16.496Z,14.90
2022-08-26T04:17:45.209Z,12.70
2022-08-26T04:20:16.197Z,13.47
2022-08-26T04:22:43.534Z,13.40
2022-08-26T04:25:11.028Z,13.83
2022-08-26T04:27:38.336Z,13.67
2022-08-26T04:30:08.007Z,14.27
2022-08-26T04:32:35.849Z,15.40
2022-08-26T04:35:04.563Z,14.40
2022-08-26T04:37:31.666Z,14.50
2022-08-26T04:39:59.781Z,15.23
2022-08-26T04:42:27.148Z,13.93
2022-08-26T04:44:54.103Z,15.53
2022-08-26T04:47:22.553Z,14.50
2022-08-26T04:49:49.502Z,15.17
2022-08-26T04:52:17.423Z,15.23
2022-08-26T04:54:44.340Z,14.70
2022-08-26T04:57:11.296Z,14.90
2022-08-26T04:59:39.494Z,14.80
2022-08-26T05:02:06.972Z,15.83
2022-08-26T05:04:34.621Z,17.50
2022-08-26T05:07:03.061Z,18.17
2022-08-26T05:09:30.488Z,18.93
2022-08-26T05:11:57.574Z,18.60
2022-08-26T05:14:24.511Z,18.47
2022-08-26T05:16:51.682Z,19.23
2022-08-26T05:19:19.501Z,19.77
2022-08-26T05:21:48.428Z,19.33
2022-08-26T05:24:16.180Z,21.37
2022-08-26T05:26:44.942Z,22.27
2022-08-26T05:29:12.783Z,20.23
2022-08-26T05:31:40.120Z,23.67
2022-08-26T05:34:08.457Z,23.70
2022-08-26T05:36:36.117Z,25.03
2022-08-26T05:39:06.086Z,27.23
2022-08-26T05:41:38.611Z,26.70
2022-08-26T05:44:09.611Z,27.80
2022-08-26T05:46:37.308Z,31.80
2022-08-26T05:49:05.890Z,28.90
2022-08-26T05:51:33.699Z,30.40
2022-08-26T05:54:03.600Z,32.40
2022-08-26T05:56:30.802Z,34.73
2022-08-26T05:58:59.673Z,35.60
2022-08-26T06:01:29.662Z,38.40
2022-08-26T06:03:59.660Z,41.23
2022-08-26T06:06:31.711Z,36.97
2022-08-26T06:09:00.838Z,40.10
2022-08-26T06:11:30.666Z,41.23
2022-08-26T06:14:03.651Z,46.80
2022-08-26T06:16:34.732Z,43.30
2022-08-26T06:19:11.129Z,42.30
2022-08-26T06:21:40.167Z,49.37
2022-08-26T06:24:36.352Z,49.23
2022-08-26T06:27:06.156Z,53.80
2022-08-26T06:29:36.041Z,53.30
2022-08-26T06:32:04.770Z,53.23
2022-08-26T06:34:31.705Z,52.20
2022-08-26T06:37:01.942Z,52.33
2022-08-26T06:39:31.142Z,53.77
2022-08-26T06:42:00.043Z,52.53
2022-08-26T06:44:27.774Z,55.07
2022-08-26T06:46:55.265Z,56.23
2022-08-26T06:49:26.771Z,55.80
2022-08-26T06:51:55.452Z,57.53
2022-08-26T06:54:22.468Z,55.20
2022-08-26T06:56:49.802Z,56.77
2022-08-26T06:59:16.707Z,55.13
2022-08-26T07:01:45.355Z,54.73
2022-08-26T07:04:15.669Z,55.40
2022-08-26T07:06:48.913Z,53.07
2022-08-26T07:09:16.938Z,56.90
2022-08-26T07:11:44.686Z,53.63
2022-08-26T07:14:12.864Z,57.47
2022-08-26T07:16:41.257Z,51.17
2022-08-26T07:19:10.796Z,52.47
2022-08-26T07:21:40.370Z,55.87
2022-08-26T07:24:08.699Z,51.40
2022-08-26T07:26:38.688Z,49.83
2022-08-26T07:29:06.918Z,51.80
2022-08-26T07:31:42.222Z,55.20
2022-08-26T07:34:13.691Z,51.17
2022-08-26T07:36:43.787Z,51.67
2022-08-26T07:39:10.818Z,49.10
2022-08-26T07:41:37.730Z,51.57
2022-08-26T07:44:05.316Z,50.67
2022-08-26T07:46:32.643Z,49.90
2022-08-26T07:48:59.601Z,49.20
2022-08-26T07:51:28.032Z,50.20
2022-08-26T07:53:55.595Z,47.13
2022-08-26T07:56:23.560Z,50.90
2022-08-26T07:58:54.093Z,49.00
2022-08-26T08:01:23.995Z,46.53
2022-08-26T08:03:52.400Z,47.73
2022-08-26T08:06:27.338Z,46.10
2022-08-26T08:08:55.901Z,42.50
2022-08-26T08:11:23.709Z,45.67
2022-08-26T08:13:56.127Z,44.80
2022-08-26T08:16:25.186Z,44.37
2022-08-26T08:18:53.575Z,43.50
2022-08-26T08:21:21.465Z,41.80
2022-08-26T08:23:51.859Z,41.27
2022-08-26T08:26:20.010Z,45.00
2022-08-26T08:28:47.788Z,43.87
2022-08-26T08:31:56.777Z,40.93
2022-08-26T08:34:19.255Z,39.63
2022-08-26T08:36:48.796Z,41.67
2022-08-26T08:39:17.330Z,41.87
2022-08-26T08:42:25.400Z,39.70
2022-08-26T08:44:55.596Z,39.93
2022-08-26T08:47:37.755Z,39.07
2022-08-26T08:50:42.944Z,40.57
2022-08-26T08:53:28.807Z,37.90
2022-08-26T08:56:31.050Z,39.53
2022-08-26T08:59:09.000Z,39.53
2022-08-26T09:02:04.821Z,41.33
2022-08-26T09:08:28.452Z,35.20
2022-08-26T09:11:00.974Z,36.03
2022-08-26T09:13:31.924Z,36.57
2022-08-26T09:16:20.487Z,35.77
2022-08-26T09:19:26.584Z,36.70
2022-08-26T09:22:02.272Z,35.80
2022-08-26T09:24:41.626Z,37.17
2022-08-26T09:27:09.021Z,36.27
2022-08-26T09:29:45.652Z,33.40
2022-08-26T09:32:24.150Z,33.90
2022-08-26T09:35:07.618Z,33.80
2022-08-26T09:40:29.386Z,32.40
2022-08-26T09:43:10.060Z,33.13
2022-08-26T09:45:38.793Z,31.97
2022-08-26T09:48:07.932Z,32.33
2022-08-26T09:50:52.314Z,30.90
2022-08-26T09:53:25.193Z,32.17
2022-08-26T09:56:16.619Z,31.30
2022-08-26T09:58:47.291Z,31.47
2022-08-26T10:01:38.009Z,31.53
2022-08-26T10:04:26.697Z,29.97
2022-08-26T10:07:05.978Z,28.27
2022-08-26T10:09:39.060Z,30.20
2022-08-26T10:12:14.816Z,29.43
2022-08-26T10:14:48.607Z,28.77
2022-08-26T10:17:29.148Z,28.90
2022-08-26T10:20:09.841Z,27.20
2022-08-26T10:23:01.099Z,27.07
2022-08-26T10:25:43.917Z,25.10
2022-08-26T10:28:40.319Z,24.80
2022-08-26T10:31:48.546Z,26.13
2022-08-26T10:34:19.216Z,24.87
2022-08-26T10:37:16.213Z,25.40
2022-08-26T10:40:28.353Z,24.90
2022-08-26T10:43:26.632Z,22.97
2022-08-26T10:46:03.758Z,22.00
2022-08-26T10:49:03.304Z,23.70
2022-08-26T10:51:42.087Z,24.57
2022-08-26T10:54:23.751Z,24.00
2022-08-26T10:56:59.965Z,23.13
2022-08-26T11:00:34.882Z,25.00
2022-08-26T11:03:43.969Z,22.40
2022-08-26T11:06:24.203Z,24.57
2022-08-26T11:08:59.578Z,23.67
2022-08-26T11:11:47.231Z,23.37
2022-08-26T11:14:58.500Z,24.50
2022-08-26T11:18:09.279Z,24.93
2022-08-26T11:20:47.183Z,22.50
2022-08-26T11:23:43.477Z,24.47
2022-08-26T11:26:36.055Z,23.50
2022-08-26T11:29:13.093Z,21.77
2022-08-26T11:31:53.701Z,21.83
2022-08-26T11:34:51.931Z,23.10
2022-08-26T11:39:54.963Z,24.47
2022-08-26T11:42:44.112Z,24.43
2022-08-26T11:45:28.438Z,24.33
2022-08-26T11:47:56.462Z,23.57
2022-08-26T11:50:28.543Z,24.73
2022-08-26T11:53:07.717Z,23.63
2022-08-26T11:55:41.838Z,23.70
2022-08-26T11:58:12.961Z,22.60
2022-08-26T12:01:01.909Z,21.30
2022-08-26T12:03:45.715Z,22.13
2022-08-26T12:06:20.776Z,21.97
2022-08-26T12:08:48.351Z,21.73
2022-08-26T12:11:27.976Z,21.97
2022-08-26T12:13:57.729Z,23.40
2022-08-26T12:16:30.386Z,24.83
2022-08-26T12:18:57.663Z,22.93
2022-08-26T12:21:34.558Z,23.17
2022-08-26T12:24:04.055Z,24.33
2022-08-26T12:26:34.737Z,23.27
2022-08-26T12:29:26.437Z,24.20
2022-08-26T12:32:13.603Z,22.73
2022-08-26T12:34:45.312Z,21.37
2022-08-26T12:37:14.226Z,20.83
2022-08-26T12:39:44.673Z,20.73
2022-08-26T12:42:42.155Z,22.17
2022-08-26T12:45:09.817Z,21.37
2022-08-26T12:47:44.099Z,19.30
2022-08-26T12:50:31.474Z,20.80
2022-08-26T12:53:21.378Z,21.63
2022-08-26T12:56:07.692Z,19.00
2022-08-26T12:58:39.082Z,19.60
2022-08-26T13:01:26.188Z,19.83
2022-08-26T13:03:53.284Z,19.47
2022-08-26T13:06:32.622Z,18.67
2022-08-26T13:09:24.771Z,19.10
2022-08-26T13:12:02.186Z,18.30
2022-08-26T13:14:29.307Z,17.57
2022-08-26T13:16:56.242Z,18.20
2022-08-26T13:19:25.773Z,18.97
2022-08-26T13:21:58.784Z,16.43
2022-08-26T13:24:38.322Z,17.40
2022-08-26T13:27:06.793Z,16.23
2022-08-26T13:29:33.751Z,15.30
2022-08-26T13:32:01.541Z,15.37
2022-08-26T13:34:29.920Z,15.20
2022-08-26T13:36:57.810Z,15.63
2022-08-26T13:39:25.431Z,14.90
2022-08-26T13:41:53.366Z,13.17
2022-08-26T13:44:20.524Z,14.07
2022-08-26T13:46:47.793Z,15.47
2022-08-26T13:49:14.781Z,13.93
2022-08-26T13:51:42.060Z,14.80
2022-08-26T13:54:08.954Z,12.70
2022-08-26T13:56:37.569Z,12.30
2022-08-26T13:59:05.785Z,13.00
2022-08-26T14:01:35.100Z,12.03
2022-08-26T14:04:03.216Z,11.23
2022-08-26T14:06:30.750Z,10.30
2022-08-26T14:08:58.673Z,10.13
2022-08-26T14:11:25.702Z,9.97
2022-08-26T14:13:52.813Z,10.10
2022-08-26T14:16:58.840Z,9.67
2022-08-26T14:19:26.179Z,10.53
2022-08-26T14:21:53.246Z,10.60
2022-08-26T14:24:20.199Z,9.57
2022-08-26T14:26:48.529Z,8.43
2022-08-26T14:29:16.870Z,7.40
2022-08-26T14:31:44.285Z,7.03
2022-08-26T14:34:14.320Z,6.90
2022-08-26T14:36:41.293Z,8.00
2022-08-26T14:39:10.687Z,7.83
2022-08-26T14:41:53.975Z,7.27
2022-08-26T14:44:27.806Z,6.87
2022-08-26T14:46:55.783Z,7.30
2022-08-26T14:49:24.350Z,6.00
2022-08-26T14:51:51.281Z,6.33
2022-08-26T14:54:19.801Z,6.80
2022-08-26T14:56:54.069Z,6.90
2022-08-26T14:59:26.794Z,7.73
2022-08-26T15:01:54.897Z,6.03
2022-08-26T15:04:23.060Z,6.10
2022-08-26T15:06:50.799Z,6.13
2022-08-26T15:09:17.867Z,6.90
2022-08-26T15:11:47.630Z,6.33
2022-08-26T15:14:19.321Z,6.90
2022-08-26T15:16:48.624Z,7.00
2022-08-26T15:19:16.463Z,4.67
2022-08-26T15:21:45.399Z,5.80
2022-08-26T15:24:13.182Z,4.83
2022-08-26T15:26:40.415Z,4.90
2022-08-26T15:29:07.429Z,5.50
2022-08-26T15:31:35.045Z,5.60
2022-08-26T15:34:06.053Z,5.10
2022-08-26T15:36:34.650Z,5.20
2022-08-26T15:39:01.892Z,4.87
2022-08-26T15:41:29.719Z,4.50
2022-08-26T15:43:57.407Z,4.87
2022-08-26T15:46:24.597Z,5.40
2022-08-26T15:48:52.380Z,4.50
2022-08-26T15:51:28.358Z,4.50
2022-08-26T15:53:59.041Z,5.50
2022-08-26T15:56:28.210Z,5.77
2022-08-26T15:58:56.434Z,4.33
2022-08-26T16:01:27.520Z,5.30
2022-08-26T16:03:55.607Z,4.97
2022-08-26T16:06:28.706Z,4.73
2022-08-26T16:08:56.394Z,4.97
2022-08-26T16:11:24.412Z,4.63
2022-08-26T16:13:51.472Z,5.70
2022-08-26T16:16:19.171Z,5.50
2022-08-26T16:18:46.121Z,4.63
2022-08-26T16:21:19.416Z,4.97
2022-08-26T16:23:46.775Z,4.57
2022-08-26T16:26:17.552Z,4.80
2022-08-26T16:28:45.064Z,5.00
2022-08-26T16:31:12.482Z,5.23
2022-08-26T16:33:40.699Z,5.17
2022-08-26T16:36:08.615Z,4.70
2022-08-26T16:38:36.489Z,5.07
2022-08-26T16:41:04.439Z,4.17
2022-08-26T16:43:32.632Z,6.00
2022-08-26T16:45:59.632Z,5.30
2022-08-26T16:48:27.529Z,4.97
2022-08-26T16:50:55.696Z,4.67
2022-08-26T16:53:23.199Z,3.67
2022-08-26T16:55:50.733Z,3.37
2022-08-26T16:58:18.055Z,3.60
2022-08-26T17:00:45.380Z,4.63
2022-08-26T17:03:13.065Z,4.60
2022-08-26T17:05:40.577Z,4.33
2022-08-26T17:08:07.942Z,3.90
2022-08-26T17:10:35.328Z,3.73
2022-08-26T17:13:02.655Z,3.73
2022-08-26T17:15:29.765Z,4.13
2022-08-26T17:17:57.398Z,4.17
2022-08-26T17:20:27.522Z,3.73
2022-08-26T17:22:56.075Z,3.23
2022-08-26T17:25:26.684Z,3.03
2022-08-26T17:27:54.144Z,4.67
2022-08-26T17:30:21.911Z,3.80
2022-08-26T17:32:49.686Z,4.23
2022-08-26T17:35:17.190Z,4.50
2022-08-26T17:37:44.507Z,4.00
2022-08-26T17:40:15.573Z,3.77
2022-08-26T17:42:42.749Z,5.63
2022-08-26T17:45:11.136Z,4.93
2022-08-26T17:47:39.132Z,4.53
2022-08-26T17:50:09.376Z,4.33
2022-08-26T17:52:37.542Z,4.23
2022-08-26T17:55:10.389Z,4.70
2022-08-26T17:57:40.892Z,3.83
2022-08-26T18:00:14.483Z,5.10
2022-08-26T18:02:42.642Z,4.30
2022-08-26T18:05:11.811Z,3.87
2022-08-26T18:07:43.785Z,3.83
2022-08-26T18:10:13.839Z,3.17
2022-08-26T18:12:41.698Z,3.53
2022-08-26T18:15:10.538Z,4.17
2022-08-26T18:17:39.379Z,3.23
2022-08-26T18:20:09.597Z,4.40
2022-08-26T18:22:36.609Z,4.27
2022-08-26T18:25:05.428Z,4.30
2022-08-26T18:27:32.602Z,3.97
2022-08-26T18:30:00.089Z,3.60
2022-08-26T18:32:27.247Z,5.30
2022-08-26T18:34:57.332Z,3.77
2022-08-26T18:37:25.770Z,3.13
2022-08-26T18:39:55.017Z,3.90
2022-08-26T18:42:23.653Z,4.00
2022-08-26T18:44:51.186Z,3.97
2022-08-26T18:47:18.332Z,3.27
2022-08-26T18:49:46.513Z,3.40
2022-08-26T18:52:15.927Z,3.40
2022-08-26T18:54:46.128Z,3.43
2022-08-26T18:57:13.117Z,4.00
2022-08-26T18:59:41.036Z,3.40
2022-08-26T19:02:09.647Z,4.20
2022-08-26T19:04:38.577Z,4.60
2022-08-26T19:07:06.598Z,3.70
2022-08-26T19:09:33.756Z,3.77
2022-08-26T19:12:01.741Z,3.60
2022-08-26T19:14:29.403Z,3.80
2022-08-26T19:16:56.466Z,3.50
2022-08-26T19:19:26.439Z,3.60
2022-08-26T19:21:53.625Z,3.33
2022-08-26T19:24:21.378Z,3.73
2022-08-26T19:26:51.462Z,3.60
2022-08-26T19:29:29.418Z,4.07
2022-08-26T19:31:56.676Z,3.27
2022-08-26T19:34:24.187Z,3.17
2022-08-26T19:36:53.242Z,4.07
2022-08-26T19:39:21.211Z,3.57
2022-08-26T19:41:48.517Z,3.60
2022-08-26T19:44:39.183Z,3.13
2022-08-26T19:47:08.826Z,3.40
2022-08-26T19:49:35.914Z,3.60
2022-08-26T19:52:03.226Z,3.53
2022-08-26T19:54:30.608Z,3.60
2022-08-26T19:56:57.638Z,3.73
2022-08-26T19:59:24.764Z,3.67
2022-08-26T20:02:00.665Z,4.47
2022-08-26T20:04:32.362Z,3.83
2022-08-26T20:07:01.835Z,4.43
2022-08-26T20:09:29.780Z,3.60
2022-08-26T20:11:57.084Z,4.93
2022-08-26T20:14:25.129Z,4.07
2022-08-26T20:16:52.363Z,4.03
2022-08-26T20:19:37.962Z,4.00
2022-08-26T20:22:05.902Z,4.63
2022-08-26T20:24:34.226Z,4.67
2022-08-26T20:27:06.784Z,4.27
2022-08-26T20:29:35.516Z,4.47
2022-08-26T20:32:02.928Z,5.90
2022-08-26T20:34:30.193Z,4.40
2022-08-26T20:36:57.270Z,3.87
2022-08-26T20:39:24.251Z,4.03
2022-08-26T20:41:51.301Z,4.03
2022-08-26T20:44:18.347Z,4.60
2022-08-26T20:46:45.703Z,5.00
2022-08-26T20:49:13.401Z,4.40
2022-08-26T20:51:43.153Z,4.43
2022-08-26T20:54:12.048Z,4.30
2022-08-26T20:56:40.034Z,4.80
2022-08-26T20:59:08.083Z,4.63
2022-08-26T21:01:37.848Z,4.67
2022-08-26T21:04:13.900Z,4.70
2022-08-26T21:06:42.325Z,4.37
2022-08-26T21:09:19.509Z,4.70
2022-08-26T21:11:46.718Z,5.40
2022-08-26T21:14:16.130Z,6.10
2022-08-26T21:16:45.714Z,5.23
2022-08-26T21:19:15.290Z,4.90
2022-08-26T21:21:42.276Z,5.17
2022-08-26T21:24:09.685Z,4.57
2022-08-26T21:26:37.140Z,5.00
2022-08-26T21:29:06.749Z,5.63
2022-08-26T21:31:35.155Z,5.17
2022-08-26T21:34:02.067Z,5.50
2022-08-26T21:36:29.287Z,4.77
2022-08-26T21:39:00.491Z,4.50
2022-08-26T21:41:28.563Z,5.03
2022-08-26T21:43:59.316Z,5.80
2022-08-26T21:46:29.100Z,5.57
2022-08-26T21:49:02.039Z,5.30
2022-08-26T21:51:32.577Z,4.50
2022-08-26T21:54:00.911Z,5.23
2022-08-26T21:56:31.621Z,4.67
2022-08-26T21:59:00.276Z,4.67
2022-08-26T22:01:31.924Z,4.73
2022-08-26T22:03:59.323Z,4.67
2022-08-26T22:06:27.872Z,5.50
2022-08-26T22:08:55.895Z,5.13
2022-08-26T22:11:25.387Z,5.70
2022-08-26T22:13:52.480Z,4.60
2022-08-26T22:16:19.897Z,4.70
2022-08-26T22:18:46.952Z,4.47
2022-08-26T22:21:16.947Z,5.50
2022-08-26T22:23:44.511Z,5.20
2022-08-26T22:26:13.598Z,7.13
2022-08-26T22:28:40.586Z,6.67
2022-08-26T22:31:11.355Z,5.67
2022-08-26T22:33:40.508Z,4.70
2022-08-26T22:36:07.758Z,6.20
2022-08-26T22:38:34.732Z,5.73
2022-08-26T22:41:05.401Z,6.30
2022-08-26T22:43:34.826Z,6.80
2022-08-26T22:46:01.832Z,6.03
2022-08-26T22:48:28.809Z,5.27
2022-08-26T22:51:00.164Z,4.73
2022-08-26T22:53:27.808Z,5.13
2022-08-26T22:55:55.059Z,5.67
2022-08-26T22:58:30.410Z,5.40
2022-08-26T23:00:59.400Z,4.70
2022-08-26T23:03:27.092Z,5.33
2022-08-26T23:05:55.534Z,5.03
2022-08-26T23:08:23.170Z,5.53
2022-08-26T23:10:50.833Z,6.60
2022-08-26T23:13:18.370Z,5.93
2022-08-26T23:15:45.820Z,6.47
2022-08-26T23:18:14.928Z,5.93
2022-08-26T23:20:42.660Z,7.27
2022-08-26T23:23:09.673Z,6.43
2022-08-26T23:25:36.661Z,7.30
2022-08-26T23:28:04.020Z,7.43
2022-08-26T23:30:32.947Z,6.43
2022-08-26T23:33:00.003Z,5.53
2022-08-26T23:35:27.104Z,5.97
2022-08-26T23:37:54.488Z,6.43
2022-08-26T23:40:28.784Z,6.90
2022-08-26T23:42:57.531Z,7.60
2022-08-26T23:45:25.425Z,6.33
2022-08-26T23:47:52.517Z,8.50
2022-08-26T23:50:22.224Z,10.40
2022-08-26T23:53:08.748Z,7.13
2022-08-26T23:55:39.718Z,7.33
2022-08-26T23:58:06.922Z,7.20
